Terminal Aerodrome Forecast
Issued by NWS

Home | Current Version | Previous Version | Text Only | Print | Product List | Glossary On
Versions: 1 2 3 4 5 6 7 8 9 10 11 12
000
FTUS43 KIND 251750
TAFLAF
TAF
KLAF 251750Z 2518/2618 18012G21KT P6SM OVC080
     FM252000 18012G21KT P6SM -SHRA VCTS OVC050CB
     FM252200 16010KT 6SM -SHRA BR VCTS OVC060CB
     FM260300 14006KT 4SM SHRA BR OVC050
     FM260600 14007KT 3SM -SHRA BR OVC030
     FM261400 17009KT 4SM -SHRA BR OVC015
     FM261700 20009KT 6SM -SHRA BR OVC040=

USA.gov is the U.S. government's official web portal to all federal, state and local government web resources and services.